Newton, KS

4:47 AM CST on January 31, 2015 (GMT -0600)
NonFedAWOS NEWTON KS US SAI | Change Station
CLOSE
Current Station
Personal Weather Station
Location: Newton, KS
Elevation: 1532 ft
Nearby Weather Stations

Elev 1532 ft 38.06 °N, 97.28 °W | Updated 2 days ago

Snow
Snow
34 °F
Feels Like 27 °F
N
9
Wind Variable Wind from South
Gusts 10 mph

Today
High -- | Low -- °F
--% Chance of Precip.
Yesterday
High -- | Low -- °F
Precip. -- in
7:34 AM 5:50 PM
Waxing Gibbous, 89% visible
Pressure 30.21 in
Visibility 10.0 miles
Clouds Few 4300 ft
Few 5000 ft
Mostly Cloudy 6500 ft
Windchill 27 °F
Dew Point 30 °F
Humidity 84%
Rainfall -999.00 in
Snow Depth Not available.
UV 0 out of 12
Pollen .10 out of 12
Air Quality Not available.
Flu Activity Not available.
METAR KEWK 311035Z AUTO 14005KT 10SM FEW043 FEW050 BKN065 02/M03 A3021 RMK AO1

More Conditions Fewer Conditions

Pressure 30.21 in
Visibility 10.0 miles
Clouds Few 4300 ft
Few 5000 ft
Mostly Cloudy 6500 ft
Windchill 27 °F
Dew Point 30 °F
Humidity 84%
Rainfall -999.00 in
Snow Depth Not available.
UV 0 out of 12
Pollen .10 out of 12
Air Quality Not available.
Flu Activity Not available.
METAR KEWK 311035Z AUTO 14005KT 10SM FEW043 FEW050 BKN065 02/M03 A3021 RMK AO1

More Conditions Fewer Conditions

10-Day Weather Forecast

Almanac

Astronomy

Jan. 31, 2015 Rise Set
Actual Time
Civil Twilight
Nautical Twilight
Astronomical Twilight
Moon
Length of Visible Light
Length of Day
Tomorrow will be .
, % of the Moon is Illuminated

Today's Extremes

State Highs State Lows

Community

WunderPhotos

Upload Photos

1,792,031 photos uploaded!

WunderBlogs® & News

Nearby

Air Quality

  Air Quality AQ Index Pollutant
Not available.

Snow Depth

Station Depth Elevation

Earthquake Activity

City Distance Mag. Time & Date
Minimum magnitude displayed is 2.5.

Coastal Water Temperatures

Place Temperature

Nearby Weather Stations